sensor_id;sensor_type;location;lat;lon;timestamp;temperature;humidity
60039;DHT22;45916;52.734;6.544;2022-10-23T00:00:59;11.30;99.90
60039;DHT22;45916;52.734;6.544;2022-10-23T00:03:25;11.30;99.90
60039;DHT22;45916;52.734;6.544;2022-10-23T00:05:50;11.30;99.90
60039;DHT22;45916;52.734;6.544;2022-10-23T00:08:16;11.30;99.90
60039;DHT22;45916;52.734;6.544;2022-10-23T00:10:42;11.30;99.90
60039;DHT22;45916;52.734;6.544;2022-10-23T00:13:09;11.20;99.90
60039;DHT22;45916;52.734;6.544;2022-10-23T00:15:35;11.30;99.90
60039;DHT22;45916;52.734;6.544;2022-10-23T00:18:02;11.20;99.90
60039;DHT22;45916;52.734;6.544;2022-10-23T00:20:27;11.20;99.90
60039;DHT22;45916;52.734;6.544;2022-10-23T00:22:53;11.20;99.90
60039;DHT22;45916;52.734;6.544;2022-10-23T00:25:19;11.20;99.90
60039;DHT22;45916;52.734;6.544;2022-10-23T00:27:45;11.20;99.90
60039;DHT22;45916;52.734;6.544;2022-10-23T00:30:11;11.20;99.90
60039;DHT22;45916;52.734;6.544;2022-10-23T00:32:37;11.20;99.90
60039;DHT22;45916;52.734;6.544;2022-10-23T00:35:03;11.20;99.90
60039;DHT22;45916;52.734;6.544;2022-10-23T00:37:29;11.20;99.90
60039;DHT22;45916;52.734;6.544;2022-10-23T00:39:54;11.20;99.90
60039;DHT22;45916;52.734;6.544;2022-10-23T00:42:22;11.20;99.90
60039;DHT22;45916;52.734;6.544;2022-10-23T00:47:13;11.20;99.90
60039;DHT22;45916;52.734;6.544;2022-10-23T00:49:39;11.20;99.90
60039;DHT22;45916;52.734;6.544;2022-10-23T00:52:07;11.30;99.90
60039;DHT22;45916;52.734;6.544;2022-10-23T00:54:37;11.30;99.90
60039;DHT22;45916;52.734;6.544;2022-10-23T00:57:05;11.30;99.90
60039;DHT22;45916;52.734;6.544;2022-10-23T00:59:32;11.30;99.90
60039;DHT22;45916;52.734;6.544;2022-10-23T01:01:58;11.40;99.90
60039;DHT22;45916;52.734;6.544;2022-10-23T01:04:25;11.30;99.90
60039;DHT22;45916;52.734;6.544;2022-10-23T01:13:01;11.10;99.90
60039;DHT22;45916;52.734;6.544;2022-10-23T01:18:10;11.00;99.90
60039;DHT22;45916;52.734;6.544;2022-10-23T01:24:02;10.90;99.90
60039;DHT22;45916;52.734;6.544;2022-10-23T01:26:54;10.90;99.90
60039;DHT22;45916;52.734;6.544;2022-10-23T01:29:35;10.80;99.90
60039;DHT22;45916;52.734;6.544;2022-10-23T01:32:15;10.80;99.90
60039;DHT22;45916;52.734;6.544;2022-10-23T01:34:51;10.70;99.90
60039;DHT22;45916;52.734;6.544;2022-10-23T01:37:34;10.60;99.90
60039;DHT22;45916;52.734;6.544;2022-10-23T01:40:04;10.50;99.90
60039;DHT22;45916;52.734;6.544;2022-10-23T01:42:40;10.40;99.90
60039;DHT22;45916;52.734;6.544;2022-10-23T01:45:16;10.30;99.90
60039;DHT22;45916;52.734;6.544;2022-10-23T01:47:44;10.30;99.90
60039;DHT22;45916;52.734;6.544;2022-10-23T01:50:12;10.30;99.90
60039;DHT22;45916;52.734;6.544;2022-10-23T01:52:39;10.20;99.90
60039;DHT22;45916;52.734;6.544;2022-10-23T01:55:06;10.20;99.90
60039;DHT22;45916;52.734;6.544;2022-10-23T01:57:34;10.30;99.90
60039;DHT22;45916;52.734;6.544;2022-10-23T02:00:07;10.30;99.90
60039;DHT22;45916;52.734;6.544;2022-10-23T02:02:35;10.30;99.90
60039;DHT22;45916;52.734;6.544;2022-10-23T02:05:08;10.30;99.90
60039;DHT22;45916;52.734;6.544;2022-10-23T02:07:35;10.30;99.90
60039;DHT22;45916;52.734;6.544;2022-10-23T02:10:03;10.20;99.90
60039;DHT22;45916;52.734;6.544;2022-10-23T02:15:13;9.90;99.90
60039;DHT22;45916;52.734;6.544;2022-10-23T02:23:25;9.70;99.90
60039;DHT22;45916;52.734;6.544;2022-10-23T02:26:02;9.70;99.90
60039;DHT22;45916;52.734;6.544;2022-10-23T02:28:37;9.80;99.90
60039;DHT22;45916;52.734;6.544;2022-10-23T02:31:05;9.90;99.90
60039;DHT22;45916;52.734;6.544;2022-10-23T02:33:33;9.90;99.90
60039;DHT22;45916;52.734;6.544;2022-10-23T02:35:59;9.80;99.90
60039;DHT22;45916;52.734;6.544;2022-10-23T02:38:32;9.80;99.90
60039;DHT22;45916;52.734;6.544;2022-10-23T02:41:18;9.70;99.90
60039;DHT22;45916;52.734;6.544;2022-10-23T02:47:11;9.60;99.90
60039;DHT22;45916;52.734;6.544;2022-10-23T02:49:52;9.70;99.90
60039;DHT22;45916;52.734;6.544;2022-10-23T02:57:36;9.70;99.90
60039;DHT22;45916;52.734;6.544;2022-10-23T03:00:14;9.80;99.90
60039;DHT22;45916;52.734;6.544;2022-10-23T03:02:55;9.80;99.90
60039;DHT22;45916;52.734;6.544;2022-10-23T03:05:26;9.80;99.90
60039;DHT22;45916;52.734;6.544;2022-10-23T03:07:53;9.70;99.90
60039;DHT22;45916;52.734;6.544;2022-10-23T03:10:19;9.70;99.90
60039;DHT22;45916;52.734;6.544;2022-10-23T03:12:45;9.70;99.90
60039;DHT22;45916;52.734;6.544;2022-10-23T03:15:11;9.70;99.90
60039;DHT22;45916;52.734;6.544;2022-10-23T03:17:37;9.60;99.90
60039;DHT22;45916;52.734;6.544;2022-10-23T03:20:04;9.60;99.90
60039;DHT22;45916;52.734;6.544;2022-10-23T03:22:30;9.60;99.90
60039;DHT22;45916;52.734;6.544;2022-10-23T03:24:56;9.50;99.90
60039;DHT22;45916;52.734;6.544;2022-10-23T03:27:22;9.50;99.90
60039;DHT22;45916;52.734;6.544;2022-10-23T03:29:47;9.60;99.90
60039;DHT22;45916;52.734;6.544;2022-10-23T03:32:13;9.60;99.90
60039;DHT22;45916;52.734;6.544;2022-10-23T03:34:39;9.60;99.90
60039;DHT22;45916;52.734;6.544;2022-10-23T03:37:04;9.60;99.90
60039;DHT22;45916;52.734;6.544;2022-10-23T03:39:30;9.60;99.90
60039;DHT22;45916;52.734;6.544;2022-10-23T03:41:56;9.50;99.90
60039;DHT22;45916;52.734;6.544;2022-10-23T03:44:21;9.50;99.90
60039;DHT22;45916;52.734;6.544;2022-10-23T03:46:47;9.60;99.90
60039;DHT22;45916;52.734;6.544;2022-10-23T03:49:13;9.60;99.90
60039;DHT22;45916;52.734;6.544;2022-10-23T03:51:38;9.60;99.90
60039;DHT22;45916;52.734;6.544;2022-10-23T03:54:07;9.60;99.90
60039;DHT22;45916;52.734;6.544;2022-10-23T03:56:32;9.60;99.90
60039;DHT22;45916;52.734;6.544;2022-10-23T03:58:58;9.70;99.90
60039;DHT22;45916;52.734;6.544;2022-10-23T04:01:24;9.70;99.90
60039;DHT22;45916;52.734;6.544;2022-10-23T04:03:50;9.80;99.90
60039;DHT22;45916;52.734;6.544;2022-10-23T04:06:16;9.70;99.90
60039;DHT22;45916;52.734;6.544;2022-10-23T04:08:45;9.80;99.90
60039;DHT22;45916;52.734;6.544;2022-10-23T04:11:10;9.80;99.90
60039;DHT22;45916;52.734;6.544;2022-10-23T04:13:36;9.80;99.90
60039;DHT22;45916;52.734;6.544;2022-10-23T04:16:02;9.80;99.90
60039;DHT22;45916;52.734;6.544;2022-10-23T04:18:27;9.80;99.90
60039;DHT22;45916;52.734;6.544;2022-10-23T04:20:53;9.80;99.90
60039;DHT22;45916;52.734;6.544;2022-10-23T04:23:19;9.80;99.90
60039;DHT22;45916;52.734;6.544;2022-10-23T04:25:45;9.70;99.90
60039;DHT22;45916;52.734;6.544;2022-10-23T04:28:11;9.70;99.90
60039;DHT22;45916;52.734;6.544;2022-10-23T04:30:36;9.70;99.90
60039;DHT22;45916;52.734;6.544;2022-10-23T04:33:02;9.70;99.90
60039;DHT22;45916;52.734;6.544;2022-10-23T04:35:28;9.80;99.90
60039;DHT22;45916;52.734;6.544;2022-10-23T04:37:53;9.80;99.90
60039;DHT22;45916;52.734;6.544;2022-10-23T04:40:19;9.80;99.90
60039;DHT22;45916;52.734;6.544;2022-10-23T04:42:45;9.80;99.90
60039;DHT22;45916;52.734;6.544;2022-10-23T04:45:11;9.70;99.90
60039;DHT22;45916;52.734;6.544;2022-10-23T04:47:36;9.70;99.90
60039;DHT22;45916;52.734;6.544;2022-10-23T04:50:02;9.70;99.90
60039;DHT22;45916;52.734;6.544;2022-10-23T04:52:28;9.70;99.90
60039;DHT22;45916;52.734;6.544;2022-10-23T04:54:54;9.80;99.90
60039;DHT22;45916;52.734;6.544;2022-10-23T04:57:19;9.80;99.90
60039;DHT22;45916;52.734;6.544;2022-10-23T04:59:45;9.90;99.90
60039;DHT22;45916;52.734;6.544;2022-10-23T05:02:11;9.90;99.90
60039;DHT22;45916;52.734;6.544;2022-10-23T05:04:36;9.90;99.90
60039;DHT22;45916;52.734;6.544;2022-10-23T05:07:02;9.80;99.90
60039;DHT22;45916;52.734;6.544;2022-10-23T05:09:28;9.80;99.90
60039;DHT22;45916;52.734;6.544;2022-10-23T05:11:54;9.70;99.90
60039;DHT22;45916;52.734;6.544;2022-10-23T05:14:19;9.70;99.90
60039;DHT22;45916;52.734;6.544;2022-10-23T05:16:58;9.70;99.90
60039;DHT22;45916;52.734;6.544;2022-10-23T05:19:28;9.70;99.90
60039;DHT22;45916;52.734;6.544;2022-10-23T05:21:56;9.60;99.90
60039;DHT22;45916;52.734;6.544;2022-10-23T05:24:22;9.60;99.90
60039;DHT22;45916;52.734;6.544;2022-10-23T05:26:48;9.60;99.90
60039;DHT22;45916;52.734;6.544;2022-10-23T05:29:21;9.60;99.90
60039;DHT22;45916;52.734;6.544;2022-10-23T05:31:50;9.60;99.90
60039;DHT22;45916;52.734;6.544;2022-10-23T05:34:18;9.60;99.90
60039;DHT22;45916;52.734;6.544;2022-10-23T05:36:45;9.60;99.90
60039;DHT22;45916;52.734;6.544;2022-10-23T05:39:11;9.60;99.90
60039;DHT22;45916;52.734;6.544;2022-10-23T05:41:37;9.60;99.90
60039;DHT22;45916;52.734;6.544;2022-10-23T05:44:02;9.60;99.90
60039;DHT22;45916;52.734;6.544;2022-10-23T05:46:28;9.60;99.90
60039;DHT22;45916;52.734;6.544;2022-10-23T05:48:54;9.60;99.90
60039;DHT22;45916;52.734;6.544;2022-10-23T05:51:20;9.60;99.90
60039;DHT22;45916;52.734;6.544;2022-10-23T05:53:49;9.60;99.90
60039;DHT22;45916;52.734;6.544;2022-10-23T05:56:15;9.60;99.90
60039;DHT22;45916;52.734;6.544;2022-10-23T05:58:41;9.60;99.90
60039;DHT22;45916;52.734;6.544;2022-10-23T06:01:09;9.60;99.90
60039;DHT22;45916;52.734;6.544;2022-10-23T06:03:36;9.60;99.90
60039;DHT22;45916;52.734;6.544;2022-10-23T06:06:02;9.60;99.90
60039;DHT22;45916;52.734;6.544;2022-10-23T06:08:29;9.70;99.90
60039;DHT22;45916;52.734;6.544;2022-10-23T06:10:55;9.70;99.90
60039;DHT22;45916;52.734;6.544;2022-10-23T06:13:20;9.80;99.90
60039;DHT22;45916;52.734;6.544;2022-10-23T06:15:46;9.80;99.90
60039;DHT22;45916;52.734;6.544;2022-10-23T06:18:12;9.80;99.90
60039;DHT22;45916;52.734;6.544;2022-10-23T06:20:38;9.80;99.90
60039;DHT22;45916;52.734;6.544;2022-10-23T06:23:04;9.80;99.90
60039;DHT22;45916;52.734;6.544;2022-10-23T06:25:30;9.80;99.90
60039;DHT22;45916;52.734;6.544;2022-10-23T06:27:57;9.90;99.90
60039;DHT22;45916;52.734;6.544;2022-10-23T06:30:22;9.80;99.90
60039;DHT22;45916;52.734;6.544;2022-10-23T06:32:48;9.80;99.90
60039;DHT22;45916;52.734;6.544;2022-10-23T06:35:14;9.80;99.90
60039;DHT22;45916;52.734;6.544;2022-10-23T06:37:40;9.90;99.90
60039;DHT22;45916;52.734;6.544;2022-10-23T06:40:06;9.90;99.90
60039;DHT22;45916;52.734;6.544;2022-10-23T06:42:33;9.90;99.90
60039;DHT22;45916;52.734;6.544;2022-10-23T06:44:59;9.90;99.90
60039;DHT22;45916;52.734;6.544;2022-10-23T06:47:25;9.90;99.90
60039;DHT22;45916;52.734;6.544;2022-10-23T06:49:50;10.00;99.90
60039;DHT22;45916;52.734;6.544;2022-10-23T06:52:16;10.00;99.90
60039;DHT22;45916;52.734;6.544;2022-10-23T06:54:42;10.10;99.90
60039;DHT22;45916;52.734;6.544;2022-10-23T06:57:07;10.10;99.90
60039;DHT22;45916;52.734;6.544;2022-10-23T06:59:33;10.10;99.90
60039;DHT22;45916;52.734;6.544;2022-10-23T07:01:59;10.10;99.90
60039;DHT22;45916;52.734;6.544;2022-10-23T07:04:24;10.20;99.90
60039;DHT22;45916;52.734;6.544;2022-10-23T07:06:54;10.20;99.90
60039;DHT22;45916;52.734;6.544;2022-10-23T07:09:20;10.20;99.90
60039;DHT22;45916;52.734;6.544;2022-10-23T07:11:46;10.20;99.90
60039;DHT22;45916;52.734;6.544;2022-10-23T07:14:12;10.30;99.90
60039;DHT22;45916;52.734;6.544;2022-10-23T07:16:37;10.30;99.90
60039;DHT22;45916;52.734;6.544;2022-10-23T07:19:03;10.30;99.90
60039;DHT22;45916;52.734;6.544;2022-10-23T07:21:32;10.40;99.90
60039;DHT22;45916;52.734;6.544;2022-10-23T07:24:02;10.40;99.90
60039;DHT22;45916;52.734;6.544;2022-10-23T07:26:28;10.40;99.90
60039;DHT22;45916;52.734;6.544;2022-10-23T07:28:54;10.50;99.90
60039;DHT22;45916;52.734;6.544;2022-10-23T07:31:22;10.50;99.90
60039;DHT22;45916;52.734;6.544;2022-10-23T07:33:48;10.60;99.90
60039;DHT22;45916;52.734;6.544;2022-10-23T07:36:14;10.60;99.90
60039;DHT22;45916;52.734;6.544;2022-10-23T07:38:39;10.60;99.90
60039;DHT22;45916;52.734;6.544;2022-10-23T07:41:05;10.70;99.90
60039;DHT22;45916;52.734;6.544;2022-10-23T07:43:31;10.70;99.90
60039;DHT22;45916;52.734;6.544;2022-10-23T07:45:58;10.80;99.90
60039;DHT22;45916;52.734;6.544;2022-10-23T07:48:24;10.90;99.90
60039;DHT22;45916;52.734;6.544;2022-10-23T07:50:51;10.90;99.90
60039;DHT22;45916;52.734;6.544;2022-10-23T07:53:20;11.00;99.90
60039;DHT22;45916;52.734;6.544;2022-10-23T07:56:01;11.00;99.90
60039;DHT22;45916;52.734;6.544;2022-10-23T07:58:28;11.10;99.90
60039;DHT22;45916;52.734;6.544;2022-10-23T08:00:59;11.20;99.90
60039;DHT22;45916;52.734;6.544;2022-10-23T08:03:26;11.30;99.90
60039;DHT22;45916;52.734;6.544;2022-10-23T08:05:53;11.30;99.90
60039;DHT22;45916;52.734;6.544;2022-10-23T08:08:20;11.40;99.90
60039;DHT22;45916;52.734;6.544;2022-10-23T08:10:47;11.40;99.90
60039;DHT22;45916;52.734;6.544;2022-10-23T08:13:14;11.50;99.90
60039;DHT22;45916;52.734;6.544;2022-10-23T08:15:40;11.50;99.90
60039;DHT22;45916;52.734;6.544;2022-10-23T08:18:07;11.60;99.90
60039;DHT22;45916;52.734;6.544;2022-10-23T08:20:40;11.70;99.90
60039;DHT22;45916;52.734;6.544;2022-10-23T08:23:06;11.70;99.90
60039;DHT22;45916;52.734;6.544;2022-10-23T08:25:32;11.90;99.90
60039;DHT22;45916;52.734;6.544;2022-10-23T08:27:58;12.00;99.90
60039;DHT22;45916;52.734;6.544;2022-10-23T08:30:26;12.10;99.90
60039;DHT22;45916;52.734;6.544;2022-10-23T08:32:52;12.20;99.90
60039;DHT22;45916;52.734;6.544;2022-10-23T08:35:18;12.40;99.90
60039;DHT22;45916;52.734;6.544;2022-10-23T08:37:43;12.70;99.90
60039;DHT22;45916;52.734;6.544;2022-10-23T08:40:22;13.00;99.90
60039;DHT22;45916;52.734;6.544;2022-10-23T08:43:55;13.30;99.90
60039;DHT22;45916;52.734;6.544;2022-10-23T08:46:07;13.60;99.90
60039;DHT22;45916;52.734;6.544;2022-10-23T08:48:45;14.00;99.90
60039;DHT22;45916;52.734;6.544;2022-10-23T08:51:39;14.30;99.90
60039;DHT22;45916;52.734;6.544;2022-10-23T08:54:23;14.70;99.90
60039;DHT22;45916;52.734;6.544;2022-10-23T08:56:58;14.90;99.90
60039;DHT22;45916;52.734;6.544;2022-10-23T08:59:29;14.90;99.90
60039;DHT22;45916;52.734;6.544;2022-10-23T09:01:59;15.10;99.90
60039;DHT22;45916;52.734;6.544;2022-10-23T09:04:26;15.20;99.90
60039;DHT22;45916;52.734;6.544;2022-10-23T09:12:21;15.40;99.90
60039;DHT22;45916;52.734;6.544;2022-10-23T09:15:42;15.30;99.90
60039;DHT22;45916;52.734;6.544;2022-10-23T09:17:54;15.20;99.90
60039;DHT22;45916;52.734;6.544;2022-10-23T09:20:29;15.20;99.90
60039;DHT22;45916;52.734;6.544;2022-10-23T09:23:25;15.10;99.90
60039;DHT22;45916;52.734;6.544;2022-10-23T09:25:51;15.10;99.90
60039;DHT22;45916;52.734;6.544;2022-10-23T09:28:25;15.10;99.90
60039;DHT22;45916;52.734;6.544;2022-10-23T09:30:52;15.10;99.90
60039;DHT22;45916;52.734;6.544;2022-10-23T09:33:24;15.10;99.90
60039;DHT22;45916;52.734;6.544;2022-10-23T09:41:34;15.30;99.90
60039;DHT22;45916;52.734;6.544;2022-10-23T09:46:43;15.30;99.90
60039;DHT22;45916;52.734;6.544;2022-10-23T09:49:27;15.40;99.90
60039;DHT22;45916;52.734;6.544;2022-10-23T09:54:23;15.50;99.90
60039;DHT22;45916;52.734;6.544;2022-10-23T09:56:49;15.60;99.90
60039;DHT22;45916;52.734;6.544;2022-10-23T09:59:24;15.70;99.90
60039;DHT22;45916;52.734;6.544;2022-10-23T10:01:54;15.70;99.90
60039;DHT22;45916;52.734;6.544;2022-10-23T10:04:31;15.80;99.90
60039;DHT22;45916;52.734;6.544;2022-10-23T10:07:02;15.80;99.90
60039;DHT22;45916;52.734;6.544;2022-10-23T10:09:28;15.70;99.90
60039;DHT22;45916;52.734;6.544;2022-10-23T10:11:56;15.70;99.90
60039;DHT22;45916;52.734;6.544;2022-10-23T10:17:44;15.80;99.90
60039;DHT22;45916;52.734;6.544;2022-10-23T10:23:13;16.30;99.90
60039;DHT22;45916;52.734;6.544;2022-10-23T10:26:06;16.60;99.90
60039;DHT22;45916;52.734;6.544;2022-10-23T10:31:47;16.60;99.90
60039;DHT22;45916;52.734;6.544;2022-10-23T10:36:52;16.50;99.90
60039;DHT22;45916;52.734;6.544;2022-10-23T10:44:47;16.30;99.90
60039;DHT22;45916;52.734;6.544;2022-10-23T10:47:22;16.10;99.90
60039;DHT22;45916;52.734;6.544;2022-10-23T10:55:36;15.90;99.90
60039;DHT22;45916;52.734;6.544;2022-10-23T11:00:51;15.80;99.90
60039;DHT22;45916;52.734;6.544;2022-10-23T11:03:40;15.70;99.90
60039;DHT22;45916;52.734;6.544;2022-10-23T11:06:15;15.60;99.90
60039;DHT22;45916;52.734;6.544;2022-10-23T11:08:43;15.50;99.90
60039;DHT22;45916;52.734;6.544;2022-10-23T11:13:43;15.50;99.90
60039;DHT22;45916;52.734;6.544;2022-10-23T11:18:42;15.50;99.90
60039;DHT22;45916;52.734;6.544;2022-10-23T11:24:11;15.40;99.90
60039;DHT22;45916;52.734;6.544;2022-10-23T11:32:25;15.50;99.90
60039;DHT22;45916;52.734;6.544;2022-10-23T11:37:38;15.60;99.90
60039;DHT22;45916;52.734;6.544;2022-10-23T11:45:34;15.70;99.90
60039;DHT22;45916;52.734;6.544;2022-10-23T11:58:43;16.00;99.90
60039;DHT22;45916;52.734;6.544;2022-10-23T12:06:46;16.00;99.90
60039;DHT22;45916;52.734;6.544;2022-10-23T12:09:26;16.00;99.90
60039;DHT22;45916;52.734;6.544;2022-10-23T12:14:40;16.10;99.90
60039;DHT22;45916;52.734;6.544;2022-10-23T12:19:52;16.00;99.90
60039;DHT22;45916;52.734;6.544;2022-10-23T12:22:19;16.00;99.90
60039;DHT22;45916;52.734;6.544;2022-10-23T12:25:02;16.00;99.90
60039;DHT22;45916;52.734;6.544;2022-10-23T12:27:46;16.00;99.90
60039;DHT22;45916;52.734;6.544;2022-10-23T12:30:18;16.00;99.90
60039;DHT22;45916;52.734;6.544;2022-10-23T12:33:24;16.10;99.90
60039;DHT22;45916;52.734;6.544;2022-10-23T12:38:45;16.10;99.90
60039;DHT22;45916;52.734;6.544;2022-10-23T12:41:20;16.00;99.90
60039;DHT22;45916;52.734;6.544;2022-10-23T12:44:09;15.90;99.90
60039;DHT22;45916;52.734;6.544;2022-10-23T12:46:41;15.90;99.90
60039;DHT22;45916;52.734;6.544;2022-10-23T12:49:19;15.90;99.90
60039;DHT22;45916;52.734;6.544;2022-10-23T12:52:04;15.80;99.90
60039;DHT22;45916;52.734;6.544;2022-10-23T12:54:32;15.80;99.90
60039;DHT22;45916;52.734;6.544;2022-10-23T12:57:01;15.80;99.90
60039;DHT22;45916;52.734;6.544;2022-10-23T12:59:35;15.80;99.90
60039;DHT22;45916;52.734;6.544;2022-10-23T13:02:01;15.80;99.90
60039;DHT22;45916;52.734;6.544;2022-10-23T13:04:29;15.80;99.90
60039;DHT22;45916;52.734;6.544;2022-10-23T13:06:59;15.90;99.90
60039;DHT22;45916;52.734;6.544;2022-10-23T13:11:55;16.00;99.90
60039;DHT22;45916;52.734;6.544;2022-10-23T13:14:40;16.00;99.90
60039;DHT22;45916;52.734;6.544;2022-10-23T13:17:08;16.10;99.90
60039;DHT22;45916;52.734;6.544;2022-10-23T13:19:34;16.20;99.90
60039;DHT22;45916;52.734;6.544;2022-10-23T13:22:04;16.20;99.90
60039;DHT22;45916;52.734;6.544;2022-10-23T13:24:30;16.30;99.90
60039;DHT22;45916;52.734;6.544;2022-10-23T13:26:56;16.30;99.90
60039;DHT22;45916;52.734;6.544;2022-10-23T13:29:28;16.30;99.90
60039;DHT22;45916;52.734;6.544;2022-10-23T13:31:55;16.40;99.90
60039;DHT22;45916;52.734;6.544;2022-10-23T13:34:29;16.40;99.90
60039;DHT22;45916;52.734;6.544;2022-10-23T13:37:02;16.40;99.90
60039;DHT22;45916;52.734;6.544;2022-10-23T13:39:30;16.40;99.90
60039;DHT22;45916;52.734;6.544;2022-10-23T13:41:58;16.40;99.90
60039;DHT22;45916;52.734;6.544;2022-10-23T13:44:25;16.40;99.90
60039;DHT22;45916;52.734;6.544;2022-10-23T13:46:51;16.40;99.90
60039;DHT22;45916;52.734;6.544;2022-10-23T13:49:18;16.40;99.90
60039;DHT22;45916;52.734;6.544;2022-10-23T13:51:50;16.40;99.90
60039;DHT22;45916;52.734;6.544;2022-10-23T13:54:22;16.30;99.90
60039;DHT22;45916;52.734;6.544;2022-10-23T13:56:48;16.30;99.90
60039;DHT22;45916;52.734;6.544;2022-10-23T13:59:15;16.30;99.90
60039;DHT22;45916;52.734;6.544;2022-10-23T14:01:42;16.30;99.90
60039;DHT22;45916;52.734;6.544;2022-10-23T14:04:08;16.30;99.90
60039;DHT22;45916;52.734;6.544;2022-10-23T14:06:34;16.30;99.90
60039;DHT22;45916;52.734;6.544;2022-10-23T14:09:03;16.30;99.90
60039;DHT22;45916;52.734;6.544;2022-10-23T14:11:29;16.30;99.90
60039;DHT22;45916;52.734;6.544;2022-10-23T14:13:55;16.30;99.90
60039;DHT22;45916;52.734;6.544;2022-10-23T14:16:21;16.30;99.90
60039;DHT22;45916;52.734;6.544;2022-10-23T14:18:48;16.30;99.90
60039;DHT22;45916;52.734;6.544;2022-10-23T14:21:15;16.30;99.90
60039;DHT22;45916;52.734;6.544;2022-10-23T14:23:41;16.20;99.90
60039;DHT22;45916;52.734;6.544;2022-10-23T14:26:10;16.20;99.90
60039;DHT22;45916;52.734;6.544;2022-10-23T14:28:37;16.20;99.90
60039;DHT22;45916;52.734;6.544;2022-10-23T14:31:11;16.20;99.90
60039;DHT22;45916;52.734;6.544;2022-10-23T14:33:37;16.20;99.90
60039;DHT22;45916;52.734;6.544;2022-10-23T14:36:03;16.20;99.90
60039;DHT22;45916;52.734;6.544;2022-10-23T14:38:29;16.30;99.90
60039;DHT22;45916;52.734;6.544;2022-10-23T14:40:55;16.20;99.90
60039;DHT22;45916;52.734;6.544;2022-10-23T14:43:21;16.30;99.90
60039;DHT22;45916;52.734;6.544;2022-10-23T14:45:47;16.20;99.90
60039;DHT22;45916;52.734;6.544;2022-10-23T14:48:12;16.20;99.90
60039;DHT22;45916;52.734;6.544;2022-10-23T14:50:42;16.30;99.90
60039;DHT22;45916;52.734;6.544;2022-10-23T14:53:08;16.30;99.90
60039;DHT22;45916;52.734;6.544;2022-10-23T14:55:34;16.30;99.90
60039;DHT22;45916;52.734;6.544;2022-10-23T14:57:59;16.30;99.90
60039;DHT22;45916;52.734;6.544;2022-10-23T15:00:25;16.30;99.90
60039;DHT22;45916;52.734;6.544;2022-10-23T15:02:51;16.30;99.90
60039;DHT22;45916;52.734;6.544;2022-10-23T15:05:17;16.30;99.90
60039;DHT22;45916;52.734;6.544;2022-10-23T15:07:42;16.30;99.90
60039;DHT22;45916;52.734;6.544;2022-10-23T15:10:08;16.30;99.90
60039;DHT22;45916;52.734;6.544;2022-10-23T15:12:35;16.30;99.90
60039;DHT22;45916;52.734;6.544;2022-10-23T15:15:01;16.30;99.90
60039;DHT22;45916;52.734;6.544;2022-10-23T15:17:27;16.30;99.90
60039;DHT22;45916;52.734;6.544;2022-10-23T15:19:52;16.30;99.90
60039;DHT22;45916;52.734;6.544;2022-10-23T15:22:18;16.30;99.90
60039;DHT22;45916;52.734;6.544;2022-10-23T15:24:44;16.30;99.90
60039;DHT22;45916;52.734;6.544;2022-10-23T15:27:10;16.30;99.90
60039;DHT22;45916;52.734;6.544;2022-10-23T15:29:36;16.30;99.90
60039;DHT22;45916;52.734;6.544;2022-10-23T15:32:04;16.30;99.90
60039;DHT22;45916;52.734;6.544;2022-10-23T15:34:30;16.30;99.90
60039;DHT22;45916;52.734;6.544;2022-10-23T15:36:57;16.30;99.90
60039;DHT22;45916;52.734;6.544;2022-10-23T15:39:26;16.30;99.90
60039;DHT22;45916;52.734;6.544;2022-10-23T15:41:54;16.20;99.90
60039;DHT22;45916;52.734;6.544;2022-10-23T15:44:20;16.20;99.90
60039;DHT22;45916;52.734;6.544;2022-10-23T15:46:47;16.20;99.90
60039;DHT22;45916;52.734;6.544;2022-10-23T15:49:13;16.10;99.90
60039;DHT22;45916;52.734;6.544;2022-10-23T15:51:39;16.10;99.90
60039;DHT22;45916;52.734;6.544;2022-10-23T15:54:07;16.00;99.90
60039;DHT22;45916;52.734;6.544;2022-10-23T15:56:33;16.00;99.90
60039;DHT22;45916;52.734;6.544;2022-10-23T15:58:59;15.90;99.90
60039;DHT22;45916;52.734;6.544;2022-10-23T16:01:25;15.90;99.90
60039;DHT22;45916;52.734;6.544;2022-10-23T16:03:51;15.90;99.90
60039;DHT22;45916;52.734;6.544;2022-10-23T16:06:18;15.90;99.90
60039;DHT22;45916;52.734;6.544;2022-10-23T16:08:44;15.90;99.90
60039;DHT22;45916;52.734;6.544;2022-10-23T16:13:40;15.80;99.90
60039;DHT22;45916;52.734;6.544;2022-10-23T16:16:07;15.80;99.90
60039;DHT22;45916;52.734;6.544;2022-10-23T16:18:32;15.80;99.90
60039;DHT22;45916;52.734;6.544;2022-10-23T16:20:58;15.80;99.90
60039;DHT22;45916;52.734;6.544;2022-10-23T16:23:24;15.80;99.90
60039;DHT22;45916;52.734;6.544;2022-10-23T16:25:53;15.80;99.90
60039;DHT22;45916;52.734;6.544;2022-10-23T16:28:18;15.90;99.90
60039;DHT22;45916;52.734;6.544;2022-10-23T16:30:44;15.80;99.90
60039;DHT22;45916;52.734;6.544;2022-10-23T16:33:11;15.80;99.90
60039;DHT22;45916;52.734;6.544;2022-10-23T16:35:37;15.80;99.90
60039;DHT22;45916;52.734;6.544;2022-10-23T16:38:03;15.80;99.90
60039;DHT22;45916;52.734;6.544;2022-10-23T16:40:29;15.90;99.90
60039;DHT22;45916;52.734;6.544;2022-10-23T16:42:58;15.90;99.90
60039;DHT22;45916;52.734;6.544;2022-10-23T16:45:24;15.90;99.90
60039;DHT22;45916;52.734;6.544;2022-10-23T16:47:49;16.00;99.90
60039;DHT22;45916;52.734;6.544;2022-10-23T16:50:15;15.90;99.90
60039;DHT22;45916;52.734;6.544;2022-10-23T16:52:41;15.90;99.90
60039;DHT22;45916;52.734;6.544;2022-10-23T16:55:07;15.90;99.90
60039;DHT22;45916;52.734;6.544;2022-10-23T16:57:34;15.90;99.90
60039;DHT22;45916;52.734;6.544;2022-10-23T17:00:00;15.80;99.90
60039;DHT22;45916;52.734;6.544;2022-10-23T17:02:26;15.80;99.90
60039;DHT22;45916;52.734;6.544;2022-10-23T17:04:51;15.70;99.90
60039;DHT22;45916;52.734;6.544;2022-10-23T17:07:17;15.80;99.90
60039;DHT22;45916;52.734;6.544;2022-10-23T17:09:44;15.70;99.90
60039;DHT22;45916;52.734;6.544;2022-10-23T17:12:12;15.80;99.90
60039;DHT22;45916;52.734;6.544;2022-10-23T17:14:38;15.80;99.90
60039;DHT22;45916;52.734;6.544;2022-10-23T17:17:04;15.70;99.90
60039;DHT22;45916;52.734;6.544;2022-10-23T17:19:31;15.70;99.90
60039;DHT22;45916;52.734;6.544;2022-10-23T17:21:58;15.70;99.90
60039;DHT22;45916;52.734;6.544;2022-10-23T17:24:25;15.80;99.90
60039;DHT22;45916;52.734;6.544;2022-10-23T17:26:51;15.80;99.90
60039;DHT22;45916;52.734;6.544;2022-10-23T17:29:18;15.90;99.90
60039;DHT22;45916;52.734;6.544;2022-10-23T17:31:46;15.90;99.90
60039;DHT22;45916;52.734;6.544;2022-10-23T17:34:18;15.90;99.90
60039;DHT22;45916;52.734;6.544;2022-10-23T17:36:46;15.90;99.90
60039;DHT22;45916;52.734;6.544;2022-10-23T17:39:16;16.00;99.90
60039;DHT22;45916;52.734;6.544;2022-10-23T17:41:42;16.00;99.90
60039;DHT22;45916;52.734;6.544;2022-10-23T17:44:08;16.10;99.90
60039;DHT22;45916;52.734;6.544;2022-10-23T17:46:34;16.10;99.90
60039;DHT22;45916;52.734;6.544;2022-10-23T17:49:01;16.10;99.90